createdAt,value
2016-09-20T13:32:38.814Z,64
2016-09-20T13:33:38.256Z,92
2016-09-20T13:34:38.173Z,72
2016-09-20T13:35:38.306Z,60
2016-09-20T13:37:38.707Z,56
2016-09-20T13:38:38.696Z,60
2016-09-20T13:39:38.072Z,56
2016-09-20T13:40:38.310Z,52
2016-09-20T13:41:37.733Z,52
2016-09-20T13:42:37.971Z,56
2016-09-20T13:43:37.601Z,60
2016-09-20T13:44:37.771Z,52
2016-09-20T13:45:38.300Z,52
2016-09-20T13:46:37.956Z,56
2016-09-20T13:47:39.757Z,64
2016-09-20T13:48:37.638Z,60
2016-09-20T13:49:37.267Z,84
2016-09-20T13:50:37.433Z,96
2016-09-20T13:51:37.341Z,88
2016-09-20T13:52:37.069Z,92
2016-09-20T13:53:37.204Z,92
2016-09-20T13:54:36.933Z,96
2016-09-20T13:55:37.200Z,96
2016-09-20T13:56:37.360Z,96
2016-09-20T13:57:36.749Z,104
2016-09-20T13:58:36.702Z,96
2016-09-20T13:59:36.618Z,100
2016-09-20T14:00:36.841Z,104
2016-09-20T14:01:37.054Z,100
2016-09-20T14:02:36.461Z,112
2016-09-20T14:03:36.599Z,112
2016-09-20T14:04:36.546Z,104
2016-09-20T14:05:36.584Z,92
2016-09-20T14:06:36.272Z,88
2016-09-20T14:07:36.143Z,92
2016-09-20T14:08:36.082Z,84
2016-09-20T14:09:36.200Z,96
2016-09-20T14:10:35.955Z,88
2016-09-20T14:11:36.087Z,104
2016-09-20T14:12:36.154Z,104
2016-09-20T14:13:35.788Z,88
2016-09-20T14:14:35.714Z,96
2016-09-20T14:15:35.838Z,84
2016-09-20T14:16:36.916Z,96
2016-09-20T14:17:36.241Z,72
2016-09-20T14:18:36.479Z,80
2016-09-20T14:19:36.039Z,96
2016-09-20T14:20:35.384Z,96
2016-09-20T14:21:35.522Z,92
2016-09-20T14:22:35.234Z,88
2016-09-20T14:23:35.173Z,72
2016-09-20T14:24:35.311Z,80
2016-09-20T14:25:35.044Z,88
2016-09-20T14:26:34.980Z,88
2016-09-20T14:27:34.933Z,68
2016-09-20T14:28:35.060Z,92
2016-09-20T14:29:34.818Z,72
2016-09-20T14:30:49.920Z,64
2016-09-20T14:31:34.686Z,60
2016-09-20T14:32:34.926Z,60
2016-09-20T14:33:34.548Z,52
2016-09-20T14:34:34.818Z,52
2016-09-20T14:35:49.567Z,52
2016-09-20T14:36:34.404Z,72
2016-09-20T14:37:34.857Z,48
2016-09-20T14:38:34.810Z,44
2016-09-20T14:39:34.195Z,48
2016-09-20T14:40:34.340Z,44
2016-09-20T14:41:34.080Z,44
2016-09-20T14:42:34.023Z,44
2016-09-20T14:43:34.162Z,44
2016-09-20T14:44:34.132Z,44
2016-09-20T14:45:33.838Z,44
2016-09-20T14:46:33.761Z,44
2016-09-20T14:47:33.720Z,44
2016-09-20T14:48:34.300Z,44
2016-09-20T14:49:33.786Z,44
2016-09-20T14:50:33.841Z,44
2016-09-20T14:51:34.011Z,44
2016-09-20T14:52:33.631Z,48
2016-09-20T14:53:33.864Z,60
2016-09-20T14:54:34.007Z,60
2016-09-20T14:55:33.768Z,64
2016-09-20T14:56:33.487Z,64
2016-09-20T14:57:33.098Z,60
2016-09-20T14:58:33.044Z,52
2016-09-20T14:59:33.869Z,60
2016-09-20T15:00:33.665Z,60
2016-09-20T15:01:33.086Z,60
2016-09-20T15:02:32.793Z,56
2016-09-20T15:03:32.725Z,56
2016-09-20T15:04:33.619Z,56
2016-09-20T15:05:32.616Z,56
2016-09-20T15:06:32.568Z,56
2016-09-20T15:07:32.740Z,52
2016-09-20T15:08:32.500Z,52
2016-09-20T15:09:32.684Z,44
2016-09-20T15:10:32.311Z,48
2016-09-20T15:11:33.456Z,44
2016-09-20T15:12:33.110Z,44
2016-09-20T15:13:32.352Z,36
2016-09-20T15:14:32.410Z,36
2016-09-20T15:15:32.012Z,40
2016-09-20T15:16:32.461Z,32
2016-09-20T15:17:32.437Z,36
2016-09-20T15:18:32.576Z,32
2016-09-20T15:19:32.195Z,28
2016-09-20T15:20:31.729Z,28
2016-09-20T15:21:31.856Z,28
2016-09-20T15:22:32.106Z,24
2016-09-20T15:23:31.554Z,24
2016-09-20T15:24:31.459Z,28
2016-09-20T15:25:32.557Z,24
2016-09-20T15:26:31.338Z,24
2016-09-20T15:27:31.715Z,20
2016-09-20T15:28:31.936Z,20
2016-09-20T15:29:31.163Z,20
2016-09-20T15:30:31.352Z,24
2016-09-20T15:31:31.367Z,20
2016-09-20T15:32:31.412Z,20
2016-09-20T15:33:30.921Z,20
2016-09-20T15:34:31.719Z,20
2016-09-20T15:35:31.763Z,20
2016-09-20T15:36:30.968Z,20
2016-09-20T15:37:30.872Z,20
2016-09-20T15:38:30.930Z,16
2016-09-20T15:39:30.557Z,16
2016-09-20T15:40:30.818Z,16
2016-09-20T15:41:30.859Z,16
2016-09-20T15:42:30.709Z,16
2016-09-20T15:43:30.317Z,20
2016-09-20T15:44:30.562Z,20
2016-09-20T15:45:30.185Z,20
2016-09-20T15:46:30.137Z,20
2016-09-20T15:47:30.317Z,20
2016-09-20T15:48:30.224Z,20
2016-09-20T15:49:29.957Z,16
2016-09-20T15:50:30.965Z,20
2016-09-20T15:51:30.251Z,20
2016-09-20T15:52:29.981Z,20
2016-09-20T15:53:29.716Z,20
2016-09-20T15:54:29.956Z,16
2016-09-20T15:55:29.910Z,16
2016-09-20T15:56:29.525Z,20
2016-09-20T15:57:29.674Z,20
2016-09-20T15:58:29.814Z,20
2016-09-20T15:59:29.654Z,20
2016-09-20T16:00:29.272Z,20
2016-09-20T16:01:29.424Z,24
2016-09-20T16:02:29.166Z,20
2016-09-20T16:03:29.098Z,20
2016-09-20T16:04:29.054Z,20
2016-09-20T16:05:29.280Z,20
2016-09-20T16:06:28.930Z,24
2016-09-20T16:07:29.055Z,24
2016-09-20T16:08:29.341Z,24
2016-09-20T16:09:28.730Z,24
2016-09-20T16:10:28.669Z,24
2016-09-20T16:11:28.621Z,24
2016-09-20T16:12:28.553Z,24
2016-09-20T16:13:28.503Z,24
2016-09-20T16:14:28.447Z,24
2016-09-20T16:15:28.388Z,24
2016-09-20T16:16:28.315Z,24
2016-09-20T16:17:28.478Z,24
2016-09-20T16:18:28.713Z,24
2016-09-20T16:19:28.153Z,24
2016-09-20T16:20:28.297Z,20
2016-09-20T16:21:28.316Z,20
2016-09-20T16:22:28.278Z,24
2016-09-20T16:23:28.200Z,20
2016-09-20T16:24:28.037Z,20
2016-09-20T16:25:28.393Z,16
2016-09-20T16:26:27.698Z,16
2016-09-20T16:27:28.187Z,20
2016-09-20T16:28:27.578Z,20
2016-09-20T16:29:28.276Z,16
2016-09-20T16:30:27.676Z,16
2016-09-20T16:31:28.154Z,16
2016-09-20T16:32:27.341Z,16
2016-09-20T16:33:27.313Z,12
2016-09-20T16:34:27.868Z,16
2016-09-20T16:35:27.170Z,16
2016-09-20T16:36:27.100Z,16
2016-09-20T16:37:27.361Z,16
2016-09-20T16:38:27.291Z,16
2016-09-20T16:39:27.138Z,16
2016-09-20T16:40:26.856Z,12
2016-09-20T16:41:27.429Z,12
2016-09-20T16:42:28.058Z,12
2016-09-20T16:43:31.640Z,12
2016-09-20T16:44:26.617Z,12
2016-09-20T16:45:26.869Z,12
2016-09-20T16:46:26.488Z,12
2016-09-20T16:47:26.431Z,8
2016-09-20T16:48:26.363Z,12
2016-09-20T16:49:26.502Z,12
2016-09-20T16:50:26.255Z,12
2016-09-20T16:51:26.505Z,12
2016-09-20T16:52:26.323Z,12
2016-09-20T16:53:26.076Z,12
2016-09-20T16:54:26.365Z,8
2016-09-20T16:55:25.941Z,8
2016-09-20T16:56:25.904Z,4
2016-09-20T16:57:25.828Z,4
2016-09-20T16:58:26.076Z,4
2016-09-20T16:59:25.694Z,4
2016-09-20T17:00:25.649Z,4
2016-09-20T17:01:25.594Z,4
2016-09-20T17:02:25.515Z,4
2016-09-20T17:03:26.231Z,4
2016-09-20T17:04:25.408Z,4
2016-09-20T17:05:25.649Z,4
2016-09-20T17:06:25.277Z,8
2016-09-20T17:07:25.251Z,8
2016-09-20T17:08:25.610Z,8
2016-09-20T17:09:25.106Z,8
2016-09-20T17:10:25.240Z,8
2016-09-20T17:11:24.971Z,8
2016-09-20T17:12:24.913Z,8
2016-09-20T17:13:25.056Z,8
2016-09-20T17:14:24.792Z,8
2016-09-20T17:15:25.036Z,8
2016-09-20T17:16:24.707Z,8
2016-09-20T17:17:24.914Z,4
2016-09-20T17:18:24.859Z,4
2016-09-20T17:19:25.015Z,4
2016-09-20T17:20:24.751Z,4
2016-09-20T17:21:24.375Z,4
2016-09-20T17:22:25.098Z,4
2016-09-20T17:23:24.559Z,4
2016-09-20T17:24:24.914Z,4
2016-09-20T17:25:24.120Z,4
2016-09-20T17:26:24.060Z,4
2016-09-20T17:27:24.334Z,4
2016-09-20T17:28:23.948Z,4
2016-09-20T17:29:24.089Z,4
2016-09-20T17:30:24.366Z,4
2016-09-20T17:31:23.756Z,4
2016-09-20T17:32:24.045Z,4
2016-09-20T17:33:23.965Z,4
2016-09-20T17:34:23.602Z,4
2016-09-20T17:35:23.535Z,4
2016-09-20T17:36:24.904Z,4
2016-09-20T17:37:23.618Z,4
2016-09-20T17:38:38.292Z,4
2016-09-20T17:39:23.285Z,4
2016-09-20T17:40:23.430Z,4
2016-09-20T17:41:23.698Z,4
2016-09-20T17:42:23.105Z,4
2016-09-20T17:43:23.056Z,4
2016-09-20T17:44:23.822Z,4
2016-09-20T17:45:22.918Z,4
2016-09-20T17:46:23.571Z,4
2016-09-20T17:47:22.798Z,4
2016-09-20T17:48:22.733Z,4
2016-09-20T17:49:22.979Z,4
2016-09-20T17:50:24.179Z,4
2016-09-20T17:51:22.552Z,4
2016-09-20T17:52:22.792Z,4
2016-09-20T17:53:22.641Z,4
2016-09-20T17:54:22.609Z,4
2016-09-20T17:55:22.718Z,4
2016-09-20T17:56:22.462Z,4
2016-09-20T17:57:22.191Z,4
2016-09-20T17:58:22.143Z,4
2016-09-20T17:59:22.060Z,4
2016-09-20T18:00:22.629Z,4
2016-09-20T18:01:22.138Z,4
2016-09-20T18:02:21.889Z,4
2016-09-20T18:03:22.023Z,4
2016-09-20T18:04:22.637Z,4
2016-09-20T18:05:21.719Z,4
2016-09-20T18:06:21.647Z,4
2016-09-20T18:07:21.901Z,4
2016-09-20T18:08:21.827Z,4
2016-09-20T18:09:21.687Z,4
2016-09-20T18:10:21.407Z,4
2016-09-20T18:11:21.343Z,4
2016-09-20T18:12:21.485Z,4
2016-09-20T18:13:21.419Z,4
2016-09-20T18:14:21.773Z,4
2016-09-20T18:15:21.426Z,4
2016-09-20T18:16:21.034Z,8
2016-09-20T18:17:20.975Z,8
2016-09-20T18:18:20.917Z,8
2016-09-20T18:19:20.871Z,8
2016-09-20T18:20:21.372Z,8
2016-09-20T18:21:21.043Z,8
2016-09-20T18:22:20.999Z,8
2016-09-20T18:23:20.600Z,8
2016-09-20T18:24:20.563Z,8
2016-09-20T18:25:20.996Z,8
2016-09-20T18:26:20.762Z,8
2016-09-20T18:27:20.391Z,8
2016-09-20T18:28:20.315Z,8
2016-09-20T18:29:20.242Z,8
2016-09-20T18:30:20.812Z,8
2016-09-20T18:31:20.318Z,8
2016-09-20T18:32:20.481Z,8
2016-09-20T18:33:20.215Z,8
2016-09-20T18:34:19.945Z,8
2016-09-20T18:35:20.076Z,8
2016-09-20T18:36:20.026Z,8
2016-09-20T18:37:19.753Z,8
2016-09-20T18:38:19.690Z,8
2016-09-20T18:39:19.838Z,8
2016-09-20T18:40:24.245Z,8
2016-09-20T18:41:19.743Z,8
2016-09-20T18:42:19.763Z,8
2016-09-20T18:43:19.384Z,8
2016-09-20T18:44:19.337Z,8
2016-09-20T18:45:19.581Z,8
2016-09-20T18:46:19.718Z,8
2016-09-20T18:47:19.468Z,8
2016-09-20T18:48:19.607Z,8
2016-09-20T18:49:19.038Z,8
2016-09-20T18:50:19.007Z,8
2016-09-20T18:51:18.911Z,8
2016-09-20T18:52:19.182Z,8
2016-09-20T18:53:18.807Z,8
2016-09-20T18:54:18.744Z,8
2016-09-20T18:55:18.671Z,8
2016-09-20T18:56:18.918Z,8
2016-09-20T18:57:19.108Z,8
2016-09-20T18:58:18.689Z,8
2016-09-20T18:59:18.747Z,8
2016-09-20T19:00:18.577Z,8
2016-09-20T19:01:18.814Z,8
2016-09-20T19:02:18.240Z,8
2016-09-20T19:03:18.205Z,8
2016-09-20T19:04:18.342Z,8
2016-09-20T19:05:18.925Z,8
2016-09-20T19:06:18.498Z,8
2016-09-20T19:07:17.940Z,8
2016-09-20T19:08:19.173Z,8
2016-09-20T19:09:18.147Z,8
2016-09-20T19:10:17.949Z,8
2016-09-20T19:11:18.240Z,8
2016-09-20T19:12:17.644Z,8
2016-09-20T19:13:17.567Z,8
2016-09-20T19:14:18.245Z,8
2016-09-20T19:15:17.969Z,8
2016-09-20T19:16:17.589Z,8
2016-09-20T19:17:17.323Z,8
2016-09-20T19:18:17.582Z,8
2016-09-20T19:19:17.221Z,8
2016-09-20T19:20:17.346Z,8
2016-09-20T19:21:17.403Z,8
2016-09-20T19:22:17.031Z,8
2016-09-20T19:23:18.489Z,8
2016-09-20T19:24:17.204Z,8
2016-09-20T19:25:17.139Z,8
2016-09-20T19:26:17.083Z,8
2016-09-20T19:27:16.736Z,8
2016-09-20T19:28:16.980Z,8
2016-09-20T19:29:17.228Z,8
2016-09-20T19:30:17.071Z,8
2016-09-20T19:31:16.670Z,8
2016-09-20T19:32:16.736Z,8
2016-09-20T19:33:16.344Z,8
2016-09-20T19:34:16.940Z,8
2016-09-20T19:35:16.571Z,8
2016-09-20T19:36:16.151Z,8
2016-09-20T19:37:16.420Z,8
2016-09-20T19:38:16.069Z,8
2016-09-20T19:39:16.515Z,8
2016-09-20T19:40:15.913Z,8
2016-09-20T19:41:16.180Z,8
2016-09-20T19:42:15.797Z,8
2016-09-20T19:43:16.050Z,8
2016-09-20T19:44:15.694Z,8
2016-09-20T19:45:15.931Z,8
2016-09-20T19:46:15.863Z,8
2016-09-20T19:47:15.687Z,8
2016-09-20T19:48:15.422Z,8
2016-09-20T19:49:15.363Z,8
2016-09-20T19:50:15.292Z,8
2016-09-20T19:51:15.256Z,8
2016-09-20T19:52:15.517Z,8
2016-09-20T19:53:15.687Z,8
2016-09-20T19:54:15.288Z,8
2016-09-20T19:55:15.006Z,8
2016-09-20T19:56:14.939Z,8
2016-09-20T19:57:15.100Z,8
2016-09-20T19:58:15.050Z,8
2016-09-20T19:59:15.072Z,8
2016-09-20T20:00:15.011Z,8
2016-09-20T20:01:14.645Z,8
2016-09-20T20:02:15.113Z,8
2016-09-20T20:03:14.511Z,8
2016-09-20T20:04:14.777Z,8
2016-09-20T20:05:14.995Z,8
2016-09-20T20:06:15.388Z,8
2016-09-20T20:07:14.270Z,8
2016-09-20T20:08:15.827Z,8
2016-09-20T20:09:14.352Z,8
2016-09-20T20:10:14.627Z,12
2016-09-20T20:11:14.228Z,8
2016-09-20T20:12:14.317Z,8
2016-09-20T20:13:13.912Z,8
2016-09-20T20:14:14.171Z,8
2016-09-20T20:15:14.109Z,8
2016-09-20T20:16:13.933Z,8
2016-09-20T20:17:14.095Z,8
2016-09-20T20:18:13.922Z,8
2016-09-20T20:19:13.540Z,8
2016-09-20T20:20:13.877Z,8
2016-09-20T20:21:13.427Z,8
2016-09-20T20:22:13.598Z,8
2016-09-20T20:23:13.756Z,8
2016-09-20T20:24:13.240Z,8
2016-09-20T20:25:14.212Z,8
2016-09-20T20:26:13.112Z,8
2016-09-20T20:27:13.398Z,8
2016-09-20T20:28:13.192Z,8
2016-09-20T20:29:12.934Z,8
2016-09-20T20:30:13.385Z,8
2016-09-20T20:31:13.123Z,8
2016-09-20T20:32:13.068Z,8
2016-09-20T20:33:12.871Z,8
2016-09-20T20:34:13.156Z,8
2016-09-20T20:35:12.552Z,8
2016-09-20T20:36:12.497Z,8
2016-09-20T20:37:12.648Z,8
2016-09-20T20:38:12.720Z,8
2016-09-20T20:39:12.834Z,8
2016-09-20T20:40:12.477Z,8
2016-09-20T20:41:12.195Z,8
2016-09-20T20:42:12.457Z,8
2016-09-20T20:43:12.088Z,8
2016-09-20T20:44:12.015Z,4
2016-09-20T20:45:11.952Z,4
2016-09-20T20:46:12.105Z,4
2016-09-20T20:47:12.051Z,4
2016-09-20T20:48:11.988Z,4
2016-09-20T20:49:12.036Z,4
2016-09-20T20:50:11.966Z,4
2016-09-20T20:51:12.333Z,4
2016-09-20T20:52:12.124Z,4
2016-09-20T20:53:11.781Z,4
2016-09-20T20:54:11.392Z,4
2016-09-20T20:55:12.167Z,4
2016-09-20T20:56:11.272Z,4
2016-09-20T20:57:11.210Z,4
2016-09-20T20:58:11.464Z,4
2016-09-20T20:59:11.099Z,4
2016-09-20T21:00:11.578Z,4
2016-09-20T21:01:10.979Z,4
2016-09-20T21:02:10.916Z,4
2016-09-20T21:03:11.468Z,4
2016-09-20T21:04:10.803Z,4
2016-09-20T21:05:10.736Z,4
2016-09-20T21:06:10.669Z,4
2016-09-20T21:07:10.616Z,4
2016-09-20T21:08:11.009Z,4
2016-09-20T21:09:10.682Z,4
2016-09-20T21:10:10.752Z,4
2016-09-20T21:11:10.413Z,4
2016-09-20T21:12:10.504Z,4
2016-09-20T21:13:10.547Z,8
2016-09-20T21:14:10.766Z,8
2016-09-20T21:15:10.125Z,8
2016-09-20T21:16:10.055Z,8
2016-09-20T21:17:10.305Z,8
2016-09-20T21:18:10.151Z,4
2016-09-20T21:19:09.898Z,4
2016-09-20T21:20:09.814Z,4
2016-09-20T21:21:10.070Z,4
2016-09-20T21:22:09.915Z,4
2016-09-20T21:23:09.637Z,4
2016-09-20T21:24:09.879Z,4
2016-09-20T21:25:09.764Z,4
2016-09-20T21:26:09.779Z,4
2016-09-20T21:27:09.909Z,4
2016-09-20T21:28:09.536Z,4
2016-09-20T21:29:09.262Z,4
2016-09-20T21:30:09.760Z,4
2016-09-20T21:31:09.463Z,4
2016-09-20T21:32:09.320Z,4
2016-09-20T21:33:09.012Z,4
2016-09-20T21:34:08.989Z,4
2016-09-20T21:35:09.540Z,4
2016-09-20T21:36:08.841Z,4
2016-09-20T21:37:09.098Z,4
2016-09-20T21:38:09.022Z,8
2016-09-20T21:39:10.093Z,8
2016-09-20T21:40:08.613Z,8
2016-09-20T21:41:08.535Z,8
2016-09-20T21:42:08.482Z,8
2016-09-20T21:43:08.416Z,8
2016-09-20T21:44:08.987Z,8
2016-09-20T21:45:08.601Z,8
2016-09-20T21:46:08.230Z,8
2016-09-20T21:47:08.162Z,8
2016-09-20T21:48:08.103Z,8
2016-09-20T21:49:08.040Z,8
2016-09-20T21:50:07.980Z,8
2016-09-20T21:51:07.926Z,4
2016-09-20T21:52:07.858Z,4
2016-09-20T21:53:07.797Z,4
2016-09-20T21:54:07.742Z,4
2016-09-20T21:55:08.222Z,4
2016-09-20T21:56:07.615Z,4
2016-09-20T21:57:07.872Z,4
2016-09-20T21:58:07.496Z,4
2016-09-20T21:59:08.102Z,4
2016-09-20T22:00:07.369Z,4
2016-09-20T22:01:07.521Z,4
2016-09-20T22:02:07.563Z,4
2016-09-20T22:03:08.352Z,4
2016-09-20T22:04:07.142Z,4
2016-09-20T22:05:07.081Z,4
2016-09-20T22:06:07.022Z,4
2016-09-20T22:07:07.466Z,4
2016-09-20T22:08:07.533Z,4
2016-09-20T22:09:07.140Z,4
2016-09-20T22:10:06.781Z,4
2016-09-20T22:11:06.712Z,4
2016-09-20T22:12:06.641Z,4
2016-09-20T22:13:06.582Z,4
2016-09-20T22:14:06.511Z,4
2016-09-20T22:15:06.676Z,4
2016-09-20T22:16:06.404Z,4
2016-09-20T22:17:06.849Z,4
2016-09-20T22:18:06.470Z,4
2016-09-20T22:19:06.212Z,4
2016-09-20T22:20:06.162Z,4
2016-09-20T22:21:06.398Z,4
2016-09-20T22:22:06.041Z,4
2016-09-20T22:23:05.965Z,4
2016-09-20T22:24:06.233Z,4
2016-09-20T22:25:05.844Z,4
2016-09-20T22:26:06.025Z,4
2016-09-20T22:27:06.059Z,4
2016-09-20T22:28:06.299Z,4
2016-09-20T22:29:05.608Z,4
2016-09-20T22:30:05.560Z,4
2016-09-20T22:31:05.484Z,4
2016-09-20T22:32:05.743Z,4
2016-09-20T22:33:05.358Z,4
2016-09-20T22:34:05.612Z,4
2016-09-20T22:35:05.235Z,4
2016-09-20T22:36:05.804Z,4
2016-09-20T22:37:05.652Z,4
2016-09-20T22:38:05.051Z,4
2016-09-20T22:39:04.995Z,4
2016-09-20T22:40:05.241Z,4
2016-09-20T22:41:04.866Z,4
2016-09-20T22:42:04.815Z,4
2016-09-20T22:43:04.771Z,4
2016-09-20T22:44:04.689Z,4
2016-09-20T22:45:04.637Z,4
2016-09-20T22:46:04.873Z,4
2016-09-20T22:47:04.817Z,4
2016-09-20T22:48:04.462Z,4
2016-09-20T22:49:04.379Z,4
2016-09-20T22:50:04.544Z,4
2016-09-20T22:51:04.593Z,4
2016-09-20T22:52:04.841Z,4
2016-09-20T22:53:04.145Z,4
2016-09-20T22:54:04.088Z,4
2016-09-20T22:55:04.023Z,4
2016-09-20T22:56:03.984Z,4
2016-09-20T22:57:03.892Z,4
2016-09-20T22:58:03.844Z,4
2016-09-20T22:59:03.771Z,4
2016-09-20T23:00:03.713Z,4
2016-09-20T23:01:03.974Z,4
2016-09-20T23:02:03.593Z,4
2016-09-20T23:03:03.749Z,4
2016-09-20T23:04:03.469Z,4
2016-09-20T23:05:03.408Z,4
2016-09-20T23:06:03.347Z,4
2016-09-20T23:07:03.288Z,4
2016-09-20T23:08:04.075Z,4
2016-09-20T23:09:03.481Z,4
2016-09-20T23:10:03.101Z,4
2016-09-20T23:11:03.043Z,4
2016-09-20T23:12:03.000Z,4
2016-09-20T23:13:02.913Z,4
2016-09-20T23:14:02.858Z,4
2016-09-20T23:15:02.795Z,4
2016-09-20T23:16:02.737Z,4
2016-09-20T23:17:02.895Z,4
2016-09-20T23:18:02.614Z,4
2016-09-20T23:19:02.567Z,4
2016-09-20T23:20:02.491Z,4
2016-09-20T23:21:03.056Z,4
2016-09-20T23:22:02.687Z,4
2016-09-20T23:23:02.312Z,4
2016-09-20T23:24:02.890Z,4
2016-09-20T23:25:02.198Z,4
2016-09-20T23:26:02.135Z,4
2016-09-20T23:27:02.083Z,4
2016-09-20T23:28:02.325Z,4
2016-09-20T23:29:01.943Z,4
2016-09-20T23:30:01.886Z,4
2016-09-20T23:31:01.817Z,4
2016-09-20T23:32:01.759Z,4
2016-09-20T23:33:02.035Z,4
2016-09-20T23:34:01.636Z,4
2016-09-20T23:35:01.898Z,4
2016-09-20T23:36:01.524Z,4
2016-09-20T23:37:01.450Z,8
2016-09-20T23:38:02.047Z,8
2016-09-20T23:39:01.339Z,8
2016-09-20T23:40:01.272Z,8
2016-09-20T23:41:01.218Z,8
2016-09-20T23:42:01.145Z,8
2016-09-20T23:43:01.086Z,4
2016-09-20T23:44:01.034Z,4
2016-09-20T23:45:00.961Z,4
2016-09-20T23:46:00.906Z,4
2016-09-20T23:47:00.844Z,4
2016-09-20T23:48:01.096Z,4
2016-09-20T23:49:00.728Z,4
2016-09-20T23:50:00.668Z,4
2016-09-20T23:51:00.608Z,4
2016-09-20T23:52:00.541Z,4
2016-09-20T23:53:00.490Z,4
2016-09-20T23:54:00.421Z,4
2016-09-20T23:55:00.362Z,4
2016-09-20T23:56:00.302Z,4
2016-09-20T23:57:00.229Z,4
2016-09-20T23:58:00.175Z,4
2016-09-20T23:59:00.114Z,4
